This is the latest recevied weather packets stored in our database for station/object HB9BTL-13. If no packets are shown the sender has not sent any weather packets the latest 10 day(s).
| Time | Temp. | Humidity | Pressure | Rain* | Wind** | Luminosity | Snow |
|---|---|---|---|---|---|---|---|
| 1787620278 | 20° C | 71% | 1010.7 hPa | - | - | - | - |
| 1787619373 | 20.56° C | 70% | 1010.7 hPa | - | - | - | - |
| 1787618467 | 20.56° C | 69% | 1011.1 hPa | - | - | - | - |
| 1787617562 | 20.56° C | 68% | 1010.7 hPa | - | - | - | - |
| 1787616656 | 20.56° C | 66% | 1010.7 hPa | - | - | - | - |
| 1787615751 | 20.56° C | 64% | 1010.8 hPa | - | - | - | - |
| 1787614846 | 20.56° C | 66% | 1011 hPa | - | - | - | - |
| 1787613941 | 21.11° C | 64% | 1011 hPa | - | - | - | - |
| 1787613036 | 21.11° C | 63% | 1011.3 hPa | - | - | - | - |
| 1787612130 | 22.22° C | 58% | 1011.4 hPa | - | - | - | - |
| 1787611225 | 22.22° C | 57% | 1011.8 hPa | - | - | - | - |
| 1787610319 | 22.22° C | 56% | 1012.1 hPa | - | - | - | - |
| 1787609414 | 22.22° C | 57% | 1011.2 hPa | - | - | - | - |
| 1787608508 | 22.22° C | 56% | 1010.6 hPa | - | - | - | - |
| 1787607603 | 22.22° C | 56% | 1010.5 hPa | - | - | - | - |
| 1787606698 | 22.78° C | 56% | 1011.1 hPa | - | - | - | - |
| 1787605792 | 22.78° C | 56% | 1010.2 hPa | - | - | - | - |
| 1787604887 | 22.78° C | 57% | 1011.9 hPa | - | - | - | - |
| 1787603981 | 22.22° C | 60% | 1012.6 hPa | - | - | - | - |
| 1787603076 | 22.78° C | 61% | 1012.3 hPa | - | - | - | - |
| 1787602170 | 22.78° C | 57% | 1012.1 hPa | - | - | - | - |
| 1787601265 | 23.33° C | 56% | 1012.2 hPa | - | - | - | - |
| 1787600360 | 22.78° C | 59% | 1011.9 hPa | - | - | - | - |
| 1787599455 | 23.33° C | 57% | 1012 hPa | - | - | - | - |
| 1787598550 | 23.33° C | 59% | 1012 hPa | - | - | - | - |
* Rain since midnight (hover to see other rain measurements)
** Current wind speed in m/s (hover to see current wind gust speed)